NORTHERN QUEENS  -  Heat Advisory Heat Advisory     Rip Current Statement Rip Current Statement     Air Quality Alert Air Quality Alert        SOUTHERN QUEENS  -  Heat Advisory Heat Advisory     Rip Current Statement Rip Current Statement     Air Quality Alert Air Quality Alert        NORTHEAST SUFFOLK  -  Rip Current Statement Rip Current Statement        NORTHERN NASSAU  -  Rip Current Statement Rip Current Statement        NORTHWEST SUFFOLK  -  Rip Current Statement Rip Current Statement        SOUTHEAST SUFFOLK  -  Rip Current Statement Rip Current Statement        SOUTHERN NASSAU  -  Rip Current Statement Rip Current Statement        SOUTHWEST SUFFOLK  -  Rip Current Statement Rip Current Statement      

Active alerts

Northern Queens
  Details for Northern Queens Heat Advisory  +2 additional alerts
Southern Queens
  Details for Southern Queens Heat Advisory  +2 additional alerts
Northern Nassau
  Details for Northern Nassau Rip Current Statement
Southern Nassau
  Details for Southern Nassau Rip Current Statement
Northwest Suffolk
  Details for Northwest Suffolk Rip Current Statement
Southwest Suffolk
  Details for Southwest Suffolk Rip Current Statement
Northeast Suffolk
  Details for Northeast Suffolk Rip Current Statement
Southeast Suffolk
  Details for Southeast Suffolk Rip Current Statement


WXM80 ListenWXM80 Stop

You find our weather info also at:

UK Metoffice

WeatherCloud

Weather Underground

Northeastern Weather Network

AWEKAS

Citizen Weather Observer Program (CWOP)

HAMweather, WeatherForYou, PWS Weather


Weather Underground History page Text

Daily Summary for February 20, 2016 Units:  English    Metric   Both
« Previous Day
Next Day »
Daily Weekly Monthly Yearly Custom
  High: Low: Average:
Temperature: 60.8 °F 40.2 °F 51.1 °F
Dew Point: 40.2 °F 34.1 °F 37.2 °F
Humidity: 87 % 42 % 61 %
Wind Speed: 12.0 mph 0.8 mph 5.4 mph
Wind Gust: 21.9 mph - -
Wind:- - SW
Pressure: 30.17 in 29.77 in -
Precipitation: 0.00 in    
Historical Graphs
 
 
Tabular Data for February 20, 2016
Time Temperature Dew Point Pressure Wind Wind Speed Wind Gust Humidity Rainfall Rate (Hourly)
00:07 40.2 °F 36.1 °F 30.17 in SSW 2.5 mph 5.0 mph 85 % 0.00 in
00:12 40.3 °F 36.4 °F 30.16 in South 5.4 mph 9.2 mph 86 % 0.00 in
00:18 40.4 °F 36.2 °F 30.16 in SSE 3.1 mph 4.6 mph 85 % 0.00 in
00:23 40.5 °F 36.3 °F 30.15 in SSW 2.9 mph 7.0 mph 85 % 0.00 in
00:28 40.5 °F 36.3 °F 30.15 in South 3.5 mph 5.8 mph 85 % 0.00 in
00:33 40.6 °F 36.7 °F 30.15 in SW 2.1 mph 3.5 mph 86 % 0.00 in
00:38 40.8 °F 36.9 °F 30.14 in SSE 4.5 mph 10.4 mph 86 % 0.00 in
00:48 41.1 °F 37.2 °F 30.14 in SSW 4.1 mph 5.8 mph 86 % 0.00 in
00:53 41.1 °F 37.2 °F 30.13 in WSW 1.5 mph 3.0 mph 86 % 0.00 in
00:58 41.2 °F 37.3 °F 30.12 in SSW 6.9 mph 11.5 mph 86 % 0.00 in
01:03 41.3 °F 37.4 °F 30.13 in SW 4.6 mph 10.4 mph 86 % 0.00 in
01:09 41.4 °F 37.5 °F 30.12 in South 2.8 mph 6.9 mph 86 % 0.00 in
01:19 41.6 °F 38.0 °F 30.12 in SSW 2.7 mph 4.0 mph 87 % 0.00 in
01:24 41.6 °F 38.0 °F 30.11 in SSW 8.1 mph 15.0 mph 87 % 0.00 in
01:29 41.8 °F 38.2 °F 30.11 in South 5.4 mph 8.1 mph 87 % 0.00 in
01:34 41.9 °F 38.3 °F 30.11 in SSE 4.8 mph 9.2 mph 87 % 0.00 in
01:39 42.0 °F 38.1 °F 30.10 in SSW 5.9 mph 6.9 mph 86 % 0.00 in
01:44 42.1 °F 38.5 °F 30.10 in SW 5.5 mph 8.1 mph 87 % 0.00 in
01:49 42.2 °F 38.3 °F 30.10 in SSW 7.3 mph 11.5 mph 86 % 0.00 in
01:54 42.2 °F 38.3 °F 30.09 in South 3.1 mph 9.2 mph 86 % 0.00 in
02:05 42.2 °F 38.3 °F 30.08 in South 4.0 mph 4.0 mph 86 % 0.00 in
02:15 42.3 °F 38.4 °F 30.07 in South 7.3 mph 15.0 mph 86 % 0.00 in
02:20 42.4 °F 38.5 °F 30.07 in South 6.6 mph 11.0 mph 86 % 0.00 in
02:25 42.5 °F 38.3 °F 30.07 in SSW 3.3 mph 10.4 mph 85 % 0.00 in
02:35 42.5 °F 38.0 °F 30.05 in SSW 7.2 mph 17.3 mph 84 % 0.00 in
02:45 42.6 °F 37.5 °F 30.04 in SSW 5.1 mph 11.5 mph 82 % 0.00 in
02:51 42.7 °F 37.6 °F 30.04 in SSW 8.6 mph 12.0 mph 82 % 0.00 in
02:56 42.7 °F 37.3 °F 30.04 in WSW 7.2 mph 11.0 mph 81 % 0.00 in
03:06 42.9 °F 36.5 °F 30.02 in SW 4.7 mph 11.5 mph 78 % 0.00 in
03:11 43.0 °F 36.6 °F 30.02 in South 9.1 mph 21.9 mph 78 % 0.00 in
03:16 43.2 °F 36.5 °F 30.02 in SW 3.9 mph 13.8 mph 77 % 0.00 in
03:26 43.4 °F 36.7 °F 30.02 in SSW 6.2 mph 9.2 mph 77 % 0.00 in
03:31 43.5 °F 36.4 °F 30.01 in South 7.6 mph 12.7 mph 76 % 0.00 in
03:36 43.6 °F 36.5 °F 30.01 in SSW 7.2 mph 12.7 mph 76 % 0.00 in
03:42 43.6 °F 36.5 °F 30.00 in SW 5.3 mph 10.4 mph 76 % 0.00 in
03:47 43.6 °F 36.5 °F 30.00 in SSW 6.7 mph 12.7 mph 76 % 0.00 in
03:52 43.7 °F 36.3 °F 30.00 in SSW 11.1 mph 18.4 mph 75 % 0.00 in
03:57 43.8 °F 36.4 °F 30.00 in South 6.1 mph 11.5 mph 75 % 0.00 in
04:02 43.8 °F 36.4 °F 30.00 in WSW 10.4 mph 20.7 mph 75 % 0.00 in
04:07 43.9 °F 36.5 °F 30.00 in SSW 6.8 mph 12.0 mph 75 % 0.00 in
04:12 44.0 °F 36.6 °F 29.99 in South 5.0 mph 15.0 mph 75 % 0.00 in
04:17 44.0 °F 36.6 °F 29.99 in South 8.4 mph 13.8 mph 75 % 0.00 in
04:33 44.1 °F 36.7 °F 29.98 in SSW 1.4 mph 8.1 mph 75 % 0.00 in
04:38 44.0 °F 36.6 °F 29.97 in SW 3.9 mph 9.2 mph 75 % 0.00 in
04:43 44.1 °F 36.3 °F 29.97 in SW 5.2 mph 10.0 mph 74 % 0.00 in
04:48 44.0 °F 35.9 °F 29.97 in SW 8.2 mph 11.5 mph 73 % 0.00 in
04:53 44.1 °F 36.0 °F 29.97 in SSW 7.3 mph 15.0 mph 73 % 0.00 in
04:58 44.1 °F 35.6 °F 29.97 in SSW 8.0 mph 13.8 mph 72 % 0.00 in
05:03 44.1 °F 35.6 °F 29.97 in SW 5.3 mph 15.0 mph 72 % 0.00 in
05:13 44.1 °F 35.6 °F 29.97 in SSE 8.5 mph 11.5 mph 72 % 0.00 in
05:24 44.1 °F 35.6 °F 29.97 in SSW 4.7 mph 11.5 mph 72 % 0.00 in
05:29 44.1 °F 35.6 °F 29.96 in South 4.7 mph 10.4 mph 72 % 0.00 in
05:34 44.0 °F 35.6 °F 29.96 in South 5.4 mph 8.1 mph 72 % 0.00 in
05:39 43.9 °F 35.1 °F 29.96 in South 7.9 mph 13.8 mph 71 % 0.00 in
05:44 43.8 °F 35.4 °F 29.95 in South 5.3 mph 6.9 mph 72 % 0.00 in
05:49 43.8 °F 35.4 °F 29.96 in SW 7.1 mph 11.5 mph 72 % 0.00 in
05:54 43.7 °F 35.3 °F 29.96 in SSW 5.9 mph 11.5 mph 72 % 0.00 in
05:59 43.7 °F 35.3 °F 29.95 in SW 5.0 mph 10.0 mph 72 % 0.00 in
06:04 43.6 °F 35.2 °F 29.95 in SW 7.2 mph 12.7 mph 72 % 0.00 in
06:09 43.6 °F 35.2 °F 29.95 in SW 6.4 mph 11.5 mph 72 % 0.00 in
06:15 43.5 °F 35.1 °F 29.95 in SW 3.4 mph 5.8 mph 72 % 0.00 in
06:20 43.5 °F 35.1 °F 29.95 in SW 5.7 mph 5.8 mph 72 % 0.00 in
06:25 43.4 °F 35.0 °F 29.95 in SSW 3.8 mph 7.0 mph 72 % 0.00 in
06:30 43.4 °F 35.3 °F 29.95 in SW 4.9 mph 9.2 mph 73 % 0.00 in
06:35 43.3 °F 35.2 °F 29.95 in SW 3.4 mph 8.1 mph 73 % 0.00 in
06:40 43.2 °F 35.1 °F 29.95 in SSW 1.8 mph 6.0 mph 73 % 0.00 in
06:50 43.1 °F 35.0 °F 29.95 in WSW 3.2 mph 8.0 mph 73 % 0.00 in
06:55 43.1 °F 35.0 °F 29.95 in SSW 4.7 mph 8.1 mph 73 % 0.00 in
07:00 43.0 °F 34.9 °F 29.95 in SSW 3.6 mph 6.0 mph 73 % 0.00 in
07:06 43.0 °F 34.9 °F 29.95 in WSW 2.0 mph 8.1 mph 73 % 0.00 in
07:11 42.9 °F 34.8 °F 29.95 in SW 6.8 mph 10.4 mph 73 % 0.00 in
07:16 42.9 °F 34.8 °F 29.95 in SW 4.1 mph 6.9 mph 73 % 0.00 in
07:21 42.9 °F 34.8 °F 29.95 in SW 4.4 mph 6.9 mph 73 % 0.00 in
07:26 42.9 °F 34.5 °F 29.96 in SSW 4.2 mph 6.9 mph 72 % 0.00 in
07:31 42.9 °F 34.5 °F 29.96 in SSW 2.4 mph 9.2 mph 72 % 0.00 in
07:36 42.9 °F 34.5 °F 29.95 in SSW 4.0 mph 6.9 mph 72 % 0.00 in
07:41 42.9 °F 34.1 °F 29.95 in SSW 2.8 mph 10.4 mph 71 % 0.00 in
07:46 43.0 °F 34.2 °F 29.95 in SSW 4.8 mph 7.0 mph 71 % 0.00 in
07:51 43.0 °F 34.2 °F 29.95 in SW 4.4 mph 10.4 mph 71 % 0.00 in
07:57 43.2 °F 34.1 °F 29.95 in South 4.7 mph 8.1 mph 70 % 0.00 in
08:02 43.3 °F 34.2 °F 29.95 in SSW 4.3 mph 8.1 mph 70 % 0.00 in
08:12 43.8 °F 34.3 °F 29.95 in SSW 2.6 mph 4.6 mph 69 % 0.00 in
08:17 44.2 °F 34.7 °F 29.95 in West 2.5 mph 4.6 mph 69 % 0.00 in
08:22 44.7 °F 34.4 °F 29.95 in SSW 4.4 mph 10.4 mph 67 % 0.00 in
08:27 45.1 °F 34.4 °F 29.95 in WNW 3.8 mph 9.2 mph 66 % 0.00 in
08:32 45.5 °F 34.4 °F 29.95 in SW 6.9 mph 10.4 mph 65 % 0.00 in
08:37 46.0 °F 34.9 °F 29.94 in SW 6.2 mph 8.1 mph 65 % 0.00 in
08:42 46.5 °F 34.6 °F 29.94 in West 4.7 mph 13.0 mph 63 % 0.00 in
08:48 46.9 °F 34.6 °F 29.94 in SW 4.8 mph 7.0 mph 62 % 0.00 in
08:53 47.5 °F 34.7 °F 29.94 in WSW 6.4 mph 11.5 mph 61 % 0.00 in
08:58 48.0 °F 34.3 °F 29.94 in West 8.0 mph 15.0 mph 59 % 0.00 in
09:03 48.5 °F 34.4 °F 29.94 in South 7.1 mph 12.7 mph 58 % 0.00 in
09:08 48.9 °F 34.8 °F 29.94 in WSW 3.1 mph 8.0 mph 58 % 0.00 in
09:13 49.4 °F 34.8 °F 29.93 in WSW 2.5 mph 4.6 mph 57 % 0.00 in
09:18 49.9 °F 34.8 °F 29.93 in West 4.6 mph 10.4 mph 56 % 0.00 in
09:23 50.4 °F 34.8 °F 29.93 in West 4.4 mph 8.0 mph 55 % 0.00 in
09:28 50.8 °F 34.7 °F 29.93 in WSW 5.9 mph 8.1 mph 54 % 0.00 in
09:33 51.1 °F 35.0 °F 29.92 in West 4.2 mph 9.2 mph 54 % 0.00 in
09:39 51.3 °F 35.2 °F 29.92 in West 4.1 mph 11.5 mph 54 % 0.00 in
09:44 51.4 °F 35.3 °F 29.92 in West 6.5 mph 11.5 mph 54 % 0.00 in
09:49 51.8 °F 35.2 °F 29.92 in West 5.7 mph 10.4 mph 53 % 0.00 in
09:54 52.0 °F 35.4 °F 29.92 in West 3.1 mph 8.1 mph 53 % 0.00 in
09:59 52.3 °F 35.7 °F 29.92 in SW 6.2 mph 10.4 mph 53 % 0.00 in
10:04 52.6 °F 35.9 °F 29.92 in WNW 2.7 mph 6.9 mph 53 % 0.00 in
10:09 53.0 °F 36.3 °F 29.92 in West 3.5 mph 4.6 mph 53 % 0.00 in
10:24 54.3 °F 36.5 °F 29.91 in SSW 7.8 mph 9.2 mph 51 % 0.00 in
10:35 55.2 °F 37.4 °F 29.91 in West 5.5 mph 8.1 mph 51 % 0.00 in
10:40 55.6 °F 36.7 °F 29.91 in SW 8.6 mph 15.0 mph 49 % 0.00 in
10:45 55.8 °F 36.9 °F 29.90 in WNW 7.3 mph 11.5 mph 49 % 0.00 in
10:50 56.2 °F 37.3 °F 29.90 in WSW 5.3 mph 12.0 mph 49 % 0.00 in
10:55 56.5 °F 37.6 °F 29.90 in West 5.1 mph 12.7 mph 49 % 0.00 in
11:00 56.8 °F 37.3 °F 29.90 in WSW 5.9 mph 10.4 mph 48 % 0.00 in
11:05 57.2 °F 37.7 °F 29.90 in SSW 5.5 mph 6.9 mph 48 % 0.00 in
11:10 57.5 °F 36.9 °F 29.90 in WSW 5.7 mph 11.5 mph 46 % 0.00 in
11:15 57.5 °F 37.4 °F 29.89 in West 3.7 mph 9.2 mph 47 % 0.00 in
11:21 57.4 °F 36.8 °F 29.89 in NW 5.5 mph 15.0 mph 46 % 0.00 in
11:26 57.3 °F 36.7 °F 29.89 in WSW 5.4 mph 11.5 mph 46 % 0.00 in
11:31 57.2 °F 37.1 °F 29.89 in WSW 4.9 mph 10.4 mph 47 % 0.00 in
11:36 57.2 °F 37.1 °F 29.89 in SW 6.8 mph 11.0 mph 47 % 0.00 in
11:41 57.2 °F 36.6 °F 29.89 in WSW 2.8 mph 11.5 mph 46 % 0.00 in
11:46 57.3 °F 36.7 °F 29.88 in SW 3.8 mph 6.9 mph 46 % 0.00 in
11:51 57.4 °F 36.8 °F 29.88 in West 5.5 mph 11.5 mph 46 % 0.00 in
11:56 57.6 °F 37.0 °F 29.88 in WSW 5.6 mph 9.2 mph 46 % 0.00 in
12:01 57.7 °F 37.0 °F 29.87 in SW 5.1 mph 9.2 mph 46 % 0.00 in
12:07 57.9 °F 36.7 °F 29.87 in SW 5.9 mph 8.1 mph 45 % 0.00 in
12:12 58.2 °F 36.9 °F 29.87 in West 4.8 mph 9.2 mph 45 % 0.00 in
12:17 58.5 °F 37.2 °F 29.87 in WSW 3.7 mph 11.5 mph 45 % 0.00 in
12:22 58.7 °F 38.0 °F 29.87 in SSW 4.0 mph 7.0 mph 46 % 0.00 in
12:27 58.9 °F 37.0 °F 29.87 in SSW 6.9 mph 11.5 mph 44 % 0.00 in
12:32 59.1 °F 37.2 °F 29.86 in South 6.4 mph 11.5 mph 44 % 0.00 in
12:37 59.2 °F 37.3 °F 29.87 in SW 7.3 mph 16.0 mph 44 % 0.00 in
12:42 59.3 °F 36.8 °F 29.86 in SSW 7.4 mph 13.8 mph 43 % 0.00 in
12:47 59.3 °F 37.4 °F 29.86 in WSW 6.6 mph 13.8 mph 44 % 0.00 in
12:52 59.3 °F 37.4 °F 29.86 in SW 9.1 mph 17.3 mph 44 % 0.00 in
12:58 59.3 °F 36.8 °F 29.86 in West 7.4 mph 12.7 mph 43 % 0.00 in
13:03 59.3 °F 36.8 °F 29.86 in WSW 3.5 mph 8.1 mph 43 % 0.00 in
13:08 59.4 °F 37.5 °F 29.86 in West 5.5 mph 11.5 mph 44 % 0.00 in
13:13 59.4 °F 37.5 °F 29.86 in SW 4.8 mph 5.8 mph 44 % 0.00 in
13:18 59.4 °F 36.9 °F 29.86 in WSW 7.1 mph 11.5 mph 43 % 0.00 in
13:23 59.3 °F 36.8 °F 29.85 in SSW 9.1 mph 14.0 mph 43 % 0.00 in
13:28 59.3 °F 37.4 °F 29.86 in WSW 9.5 mph 15.0 mph 44 % 0.00 in
13:38 59.5 °F 37.6 °F 29.84 in South 7.0 mph 11.5 mph 44 % 0.00 in
13:43 59.5 °F 37.6 °F 29.84 in SW 4.3 mph 8.1 mph 44 % 0.00 in
13:49 59.6 °F 37.6 °F 29.84 in South 2.8 mph 8.1 mph 44 % 0.00 in
13:54 59.6 °F 37.6 °F 29.85 in SW 4.5 mph 11.5 mph 44 % 0.00 in
13:59 59.6 °F 37.6 °F 29.85 in SW 5.4 mph 9.2 mph 44 % 0.00 in
14:04 59.6 °F 37.6 °F 29.85 in SSE 5.5 mph 7.0 mph 44 % 0.00 in
14:09 59.7 °F 38.3 °F 29.85 in SSW 4.3 mph 8.1 mph 45 % 0.00 in
14:14 59.7 °F 38.3 °F 29.84 in WSW 5.4 mph 9.2 mph 45 % 0.00 in
14:29 59.8 °F 37.8 °F 29.84 in WSW 7.3 mph 13.0 mph 44 % 0.00 in
14:34 60.0 °F 38.6 °F 29.83 in SW 5.5 mph 8.1 mph 45 % 0.00 in
14:40 60.2 °F 38.8 °F 29.83 in WSW 4.5 mph 8.1 mph 45 % 0.00 in
14:45 60.4 °F 38.4 °F 29.83 in SSW 4.6 mph 11.0 mph 44 % 0.00 in
14:50 60.5 °F 38.5 °F 29.83 in WSW 7.5 mph 13.8 mph 44 % 0.00 in
14:55 60.5 °F 38.5 °F 29.83 in SSW 9.5 mph 17.3 mph 44 % 0.00 in
15:00 60.5 °F 39.0 °F 29.83 in WSW 4.0 mph 11.5 mph 45 % 0.00 in
15:05 60.5 °F 38.5 °F 29.82 in SW 5.4 mph 9.2 mph 44 % 0.00 in
15:10 60.6 °F 38.6 °F 29.82 in South 4.9 mph 9.2 mph 44 % 0.00 in
15:15 60.7 °F 38.6 °F 29.82 in SSW 6.4 mph 8.1 mph 44 % 0.00 in
15:25 60.8 °F 38.7 °F 29.82 in SSW 4.5 mph 9.0 mph 44 % 0.00 in
15:31 60.8 °F 38.7 °F 29.82 in SSW 9.6 mph 12.7 mph 44 % 0.00 in
15:36 60.8 °F 38.7 °F 29.82 in WSW 2.6 mph 7.0 mph 44 % 0.00 in
15:41 60.8 °F 38.1 °F 29.81 in SSW 12.0 mph 17.3 mph 43 % 0.00 in
15:46 60.7 °F 38.6 °F 29.81 in SW 8.3 mph 16.1 mph 44 % 0.00 in
15:51 60.7 °F 38.6 °F 29.81 in SSW 8.4 mph 11.5 mph 44 % 0.00 in
15:56 60.6 °F 38.6 °F 29.81 in SW 5.9 mph 9.2 mph 44 % 0.00 in
16:01 60.6 °F 38.6 °F 29.80 in WSW 7.2 mph 11.5 mph 44 % 0.00 in
16:06 60.5 °F 38.5 °F 29.80 in WSW 7.5 mph 12.7 mph 44 % 0.00 in
16:11 60.5 °F 37.9 °F 29.79 in SSW 7.0 mph 11.5 mph 43 % 0.00 in
16:16 60.5 °F 37.9 °F 29.80 in SW 7.7 mph 11.5 mph 43 % 0.00 in
16:22 60.5 °F 38.5 °F 29.80 in West 8.1 mph 9.2 mph 44 % 0.00 in
16:27 60.4 °F 37.8 °F 29.80 in SSW 4.9 mph 9.2 mph 43 % 0.00 in
16:32 60.4 °F 37.8 °F 29.80 in SW 4.5 mph 6.9 mph 43 % 0.00 in
16:37 60.3 °F 37.1 °F 29.80 in SSW 5.1 mph 7.0 mph 42 % 0.00 in
16:42 60.3 °F 37.7 °F 29.80 in WSW 3.8 mph 5.8 mph 43 % 0.00 in
16:47 60.2 °F 37.6 °F 29.80 in SSW 7.7 mph 12.7 mph 43 % 0.00 in
16:52 60.0 °F 37.4 °F 29.80 in SSW 3.6 mph 7.0 mph 43 % 0.00 in
16:57 59.9 °F 37.3 °F 29.79 in SSW 6.9 mph 11.5 mph 43 % 0.00 in
17:02 59.8 °F 37.2 °F 29.79 in SW 7.7 mph 12.7 mph 43 % 0.00 in
17:05 57.5 °F 36.9 °F 29.79 in SSW 3.0 mph 5.0 mph 46 % 0.00 in
17:07 59.7 °F 37.2 °F 29.79 in SW 6.0 mph 11.5 mph 43 % 0.00 in
17:13 59.6 °F 37.1 °F 29.79 in SW 4.9 mph 8.0 mph 43 % 0.00 in
17:18 59.4 °F 36.9 °F 29.78 in SSW 6.8 mph 11.0 mph 43 % 0.00 in
17:23 59.2 °F 37.3 °F 29.78 in SW 4.7 mph 8.1 mph 44 % 0.00 in
17:28 58.9 °F 37.0 °F 29.78 in SW 7.1 mph 11.5 mph 44 % 0.00 in
17:33 58.7 °F 36.8 °F 29.78 in SSW 5.4 mph 10.4 mph 44 % 0.00 in
17:38 58.5 °F 36.6 °F 29.78 in SSW 5.5 mph 12.7 mph 44 % 0.00 in
17:43 58.4 °F 36.6 °F 29.79 in SSW 7.1 mph 10.4 mph 44 % 0.00 in
17:58 57.7 °F 37.0 °F 29.79 in SW 2.6 mph 9.2 mph 46 % 0.00 in
18:04 57.6 °F 37.0 °F 29.79 in WSW 2.2 mph 5.8 mph 46 % 0.00 in
18:09 57.4 °F 37.3 °F 29.78 in SSW 5.0 mph 5.0 mph 47 % 0.00 in
18:14 57.0 °F 37.5 °F 29.80 in SSW 5.1 mph 9.2 mph 48 % 0.00 in
18:19 56.6 °F 37.6 °F 29.80 in SSW 6.2 mph 10.4 mph 49 % 0.00 in
18:24 56.2 °F 37.8 °F 29.81 in SSW 3.9 mph 8.1 mph 50 % 0.00 in
18:29 56.0 °F 37.6 °F 29.81 in SW 1.1 mph 3.5 mph 50 % 0.00 in
18:34 55.7 °F 37.8 °F 29.81 in SSW 1.1 mph 3.5 mph 51 % 0.00 in
18:39 55.4 °F 37.6 °F 29.81 in SSW 1.0 mph 5.8 mph 51 % 0.00 in
18:44 55.0 °F 37.7 °F 29.81 in SSW 2.8 mph 4.0 mph 52 % 0.00 in
18:49 54.6 °F 37.8 °F 29.81 in SSW 0.9 mph 3.5 mph 53 % 0.00 in
19:00 54.0 °F 37.7 °F 29.81 in South 1.4 mph 4.0 mph 54 % 0.00 in
19:05 53.6 °F 37.8 °F 29.81 in SW 0.8 mph 4.0 mph 55 % 0.00 in
19:10 53.2 °F 37.9 °F 29.81 in SW 1.7 mph 3.5 mph 56 % 0.00 in
19:15 52.8 °F 38.0 °F 29.81 in SSW 1.6 mph 4.6 mph 57 % 0.00 in
19:20 52.5 °F 38.1 °F 29.81 in South 2.6 mph 5.0 mph 58 % 0.00 in
19:25 52.1 °F 38.2 °F 29.80 in SW 2.1 mph 5.0 mph 59 % 0.00 in
19:30 51.7 °F 38.3 °F 29.81 in WSW 4.2 mph 6.9 mph 60 % 0.00 in
19:40 51.0 °F 38.0 °F 29.80 in SSW 3.7 mph 7.0 mph 61 % 0.00 in
19:46 50.9 °F 38.3 °F 29.81 in SSW 3.6 mph 8.1 mph 62 % 0.00 in
19:51 50.8 °F 38.2 °F 29.80 in SW 5.9 mph 10.4 mph 62 % 0.00 in
20:01 50.8 °F 38.2 °F 29.80 in SSW 7.3 mph 11.5 mph 62 % 0.00 in
20:06 50.9 °F 38.3 °F 29.81 in SSW 4.5 mph 11.5 mph 62 % 0.00 in
20:11 51.0 °F 38.4 °F 29.81 in SSW 8.0 mph 11.5 mph 62 % 0.00 in
20:16 51.2 °F 38.6 °F 29.81 in SW 7.7 mph 15.0 mph 62 % 0.00 in
20:21 51.3 °F 38.7 °F 29.80 in SSW 8.7 mph 17.3 mph 62 % 0.00 in
20:26 51.4 °F 38.8 °F 29.80 in SSW 4.1 mph 15.0 mph 62 % 0.00 in
20:31 51.5 °F 38.9 °F 29.80 in SW 9.0 mph 13.0 mph 62 % 0.00 in
20:37 51.7 °F 38.7 °F 29.80 in SSE 6.2 mph 10.4 mph 61 % 0.00 in
20:42 51.7 °F 38.7 °F 29.80 in SW 8.2 mph 18.4 mph 61 % 0.00 in
20:47 51.7 °F 38.7 °F 29.80 in SW 4.6 mph 8.1 mph 61 % 0.00 in
20:52 51.8 °F 38.8 °F 29.80 in SSW 9.5 mph 12.7 mph 61 % 0.00 in
20:57 51.8 °F 38.8 °F 29.80 in SSW 8.8 mph 12.7 mph 61 % 0.00 in
21:07 51.7 °F 39.1 °F 29.80 in SW 7.0 mph 10.4 mph 62 % 0.00 in
21:12 51.7 °F 39.1 °F 29.80 in South 6.8 mph 11.0 mph 62 % 0.00 in
21:22 51.5 °F 39.3 °F 29.80 in SSW 8.8 mph 12.7 mph 63 % 0.00 in
21:28 51.5 °F 39.3 °F 29.79 in SW 7.2 mph 11.5 mph 63 % 0.00 in
21:33 51.4 °F 39.2 °F 29.80 in SSW 6.4 mph 11.5 mph 63 % 0.00 in
21:38 51.4 °F 39.2 °F 29.80 in South 5.2 mph 10.4 mph 63 % 0.00 in
21:43 51.3 °F 39.1 °F 29.80 in SSE 4.3 mph 6.9 mph 63 % 0.00 in
21:48 51.3 °F 39.1 °F 29.79 in SW 3.3 mph 8.1 mph 63 % 0.00 in
21:53 51.3 °F 39.5 °F 29.79 in WSW 5.1 mph 8.1 mph 64 % 0.00 in
21:58 51.3 °F 39.5 °F 29.79 in SW 6.2 mph 11.5 mph 64 % 0.00 in
22:03 51.3 °F 39.5 °F 29.79 in WSW 5.7 mph 9.2 mph 64 % 0.00 in
22:08 51.3 °F 39.5 °F 29.79 in SW 6.7 mph 8.0 mph 64 % 0.00 in
22:19 51.3 °F 39.5 °F 29.78 in SW 6.7 mph 8.1 mph 64 % 0.00 in
22:24 51.2 °F 39.4 °F 29.78 in SW 8.0 mph 13.8 mph 64 % 0.00 in
22:29 51.1 °F 39.7 °F 29.78 in SW 4.5 mph 11.5 mph 65 % 0.00 in
22:39 51.0 °F 39.6 °F 29.78 in SW 5.8 mph 8.1 mph 65 % 0.00 in
22:44 50.9 °F 39.5 °F 29.78 in SW 4.7 mph 9.0 mph 65 % 0.00 in
22:49 50.8 °F 39.5 °F 29.78 in SSW 5.4 mph 11.5 mph 65 % 0.00 in
22:54 50.7 °F 39.7 °F 29.78 in SW 4.8 mph 10.0 mph 66 % 0.00 in
22:59 50.5 °F 39.6 °F 29.78 in SW 5.3 mph 9.2 mph 66 % 0.00 in
23:04 50.4 °F 39.5 °F 29.78 in SSW 3.9 mph 6.9 mph 66 % 0.00 in
23:10 50.3 °F 39.8 °F 29.78 in WSW 3.7 mph 6.0 mph 67 % 0.00 in
23:15 50.2 °F 39.7 °F 29.78 in South 6.1 mph 11.5 mph 67 % 0.00 in
23:20 50.1 °F 39.6 °F 29.78 in SSW 5.9 mph 5.9 mph 67 % 0.00 in
23:25 50.0 °F 39.8 °F 29.77 in WSW 7.2 mph 11.5 mph 68 % 0.00 in
23:30 50.1 °F 39.9 °F 29.77 in SSW 4.9 mph 9.2 mph 68 % 0.00 in
23:35 50.1 °F 39.9 °F 29.77 in SSW 5.3 mph 9.2 mph 68 % 0.00 in
23:40 50.2 °F 40.0 °F 29.77 in SW 5.2 mph 10.4 mph 68 % 0.00 in
23:45 50.3 °F 40.1 °F 29.77 in SW 5.9 mph 10.4 mph 68 % 0.00 in
23:50 50.4 °F 40.2 °F 29.77 in SW 6.1 mph 11.5 mph 68 % 0.00 in
23:55 50.4 °F 40.2 °F 29.77 in SW 6.1 mph 10.4 mph 68 % 0.00 in
Crab Meadow Weather
Compliments of Weather Underground - 2.75 mb

Script developed by  Jim McMurry - jmcmurry@mwt.net Adapted for the template by  Wim van der Kuil - Leuven-Template.eu

Weather Terms: Wind Advisory - Sustained winds of 30 mph or greater or gusts to 45 mph or greater for a duration of one hour or longer.